Severy, KS

7:34 AM CDT on July 31, 2014 (GMT -0500)
HADS FALL RIVER LAKE NEAR FALL RIVER KS US USARMY-COE (MFLLK1) Elev 1020 ft | 37.65 °N, 96.08 °W | Change Station

Current weather conditions updated 34 minutes ago

Overcast
Overcast
67 °F
Feels Like 67 °F
N
6
Wind Variable Wind from NNE
Gusts 0.0 mph

Today is forecast to be Much Warmer than yesterday.

Today
High -- | Low -- °F
--% Chance of Precip.
Yesterday
High -- | Low -- °F
Precip. -- in
6:27 AM 8:34 PM
Waxing Crescent, 18% visible
Pressure 30.11 in
Visibility 3.0 miles
Clouds Few 500 ft
Overcast 5000 ft
Dew Point 67 °F
Humidity 100%
Rainfall 0.31 in
Snow Depth Not available.
UV 0 out of 12
Pollen 6.40 out of 12
Air Quality Not available.
Flu Activity Not available.
SPECI KCNU 311227Z AUTO 00000KT 3SM BR FEW005 OVC050 17/16 A3011 RMK AO2 T01670161

More Conditions Fewer Conditions

Pressure 30.11 in
Visibility 3.0 miles
Clouds Few 500 ft
Overcast 5000 ft
Dew Point 67 °F
Humidity 100%
Rainfall 0.31 in
Snow Depth Not available.
UV 0 out of 12
Pollen 6.40 out of 12
Air Quality Not available.
Flu Activity Not available.
SPECI KCNU 311227Z AUTO 00000KT 3SM BR FEW005 OVC050 17/16 A3011 RMK AO2 T01670161

More Conditions Fewer Conditions

10-Day Weather Forecast

Almanac

Astronomy

Jul. 31, 2014 Rise Set
Actual Time 6:27 AM CDT 8:34 PM CDT
Civil Twilight 5:58 AM CDT 9:03 PM CDT
Nautical Twilight 5:23 AM CDT 9:38 PM CDT
Astronomical Twilight 4:44 AM CDT 10:17 PM CDT
Moon 10:50 AM CDT 10:54 PM CDT
Length of Visible Light 15h 04m
Length of Day
14h 06m
Tomorrow will be 1m 48s shorter.
Waxing Crescent, 18% of the Moon is Illuminated
Today
Waxing Crescent
Aug 3
First Quarter
Aug 10
Full
Aug 17
Last Quarter
Aug 25
New

Today's Extremes

State Highs State Lows

Community

WunderPhotos

Upload Photos

1,739,307 photos uploaded!

WunderBlogs® & News

By Dr. Jeff Masters
Director of Meteorology, Weather Underground
By Kari Strenfel
Meteorologist, Weather Underground
By Christopher C. Burt
Weather Historian, Weather Underground
July 31, 2014
July 31, 2014
July 31, 2014

Nearby

Snow Depth

Station Depth Elevation
No new snow has been reported.

Earthquake Activity

City Distance Mag. Time & Date
Perry, Oklahoma 116 miles 2.8 4:28 AM CDT
2014-07-27
Caldwell, Kansas 94 miles 3.4 5:57 AM CDT
2014-07-26
Minimum magnitude displayed is 2.5.

Coastal Water Temperatures

Place Temperature
No Stations Reporting

Nearby Weather Stations

Station Location Temp. Dew Point Humidity Wind Precip. Elev Updated Type
HADS FALL RIVER LAKE NEAR FALL RIVER KS, Fall River, KS 67 °F 67 °F 100% NNE  at  6 mph 0.00 in / hr 1020 ft 7:00 AM CDT MADIS
HADS VERDIGRIS RIVER AT TORONTO KS, Toronto, KS 63 °F 61 °F 94% ESE  at  1 mph 0.00 in / hr 960 ft 6:30 AM CDT MADIS

Show More Stations Show Fewer Stations